Time;durP1;ratioP1;P1;durP2;ratioP2;P2;SDS_P1;SDS_P2;PMS_P1;PMS_P2;Temp;Humidity;BMP_temperature;BMP_pressure;BME280_temperature;BME280_humidity;BME280_pressure;Samples;Min_cycle;Max_cycle;Signal;HPM_P1;HPM_P2
2023/01/07 00:00:56;;;;;;;9.27;6.32;;;;;;;;;;4959500;28;20049;-65
2023/01/07 00:03:42;;;;;;;6.43;5.82;;;;;;;;;;4975562;28;20043;-66
2023/01/07 00:06:51;;;;;;;;;;;;;;;;;;;;;
2023/01/07 00:09:56;;;;;;;7.70;6.10;;;;;;;;;;5016953;28;20048;-66
2023/01/07 00:12:56;;;;;;;7.05;6.03;;;;;;;;;;4999519;28;20045;-65
2023/01/07 00:16:01;;;;;;;5.75;4.90;;;;;;;;;;4999994;28;20033;-66
2023/01/07 00:19:23;;;;;;;5.97;4.93;;;;;;;;;;4970965;28;20045;-65
2023/01/07 00:22:44;;;;;;;6.82;5.55;;;;;;;;;;5014428;28;20030;-66
2023/01/07 00:25:43;;;;;;;8.95;5.80;;;;;;;;;;4998651;28;20048;-65
2023/01/07 00:28:37;;;;;;;;;;;;;;;;;;;;;
2023/01/07 00:35:31;;;;;;;5.20;4.70;;;;;;;;;;4995150;28;20062;-64
2023/01/07 00:38:44;;;;;;;5.15;4.70;;;;;;;;;;4951281;28;20039;-65
2023/01/07 00:49:09;;;;;;;5.28;4.60;;;;;;;;;;4956705;28;20121;-64
2023/01/07 00:55:54;;;;;;;5.25;4.78;;;;;;;;;;4975133;28;20070;-65
2023/01/07 00:59:25;;;;;;;;;;;;;;;;;;;;;
2023/01/07 01:02:21;;;;;;;5.35;4.00;;;;;;;;;;4976580;28;20027;-64
2023/01/07 01:05:38;;;;;;;4.18;3.85;;;;;;;;;;4976430;28;20039;-65
2023/01/07 01:08:24;;;;;;;;;;;;;;;;;;;;;
2023/01/07 01:11:30;;;;;;;;;;;;;;;;;;;;;
2023/01/07 01:14:46;;;;;;;4.40;4.10;;;;;;;;;;4976798;28;20394;-65
2023/01/07 01:17:54;;;;;;;;;;;;;;;;;;;;;
2023/01/07 01:21:21;;;;;;;;;;;;;;;;;;;;;
2023/01/07 01:24:43;;;;;;;;;;;;;;;;;;;;;
2023/01/07 01:31:59;;;;;;;;;;;;;;;;;;;;;
2023/01/07 01:41:15;;;;;;;4.38;3.83;;;;;;;;;;5013690;28;20064;-65
2023/01/07 01:44:42;;;;;;;;;;;;;;;;;;;;;
2023/01/07 01:59:13;;;;;;;;;;;;;;;;;;;;;
2023/01/07 02:02:17;;;;;;;4.28;3.85;;;;;;;;;;4996588;28;20456;-64
2023/01/07 02:12:16;;;;;;;4.60;4.00;;;;;;;;;;4999498;28;20076;-63
2023/01/07 02:15:29;;;;;;;4.78;4.38;;;;;;;;;;5013500;28;20065;-63
2023/01/07 02:22:02;;;;;;;4.18;3.78;;;;;;;;;;5014704;28;20493;-63
2023/01/07 02:25:04;;;;;;;3.78;3.42;;;;;;;;;;4999008;28;20045;-63
2023/01/07 02:28:14;;;;;;;3.55;3.25;;;;;;;;;;4995512;28;20045;-64
2023/01/07 02:31:13;;;;;;;3.80;3.50;;;;;;;;;;4997972;28;20038;-64
2023/01/07 02:37:04;;;;;;;4.25;3.85;;;;;;;;;;5008487;28;20084;-66
2023/01/07 02:40:15;;;;;;;5.65;4.43;;;;;;;;;;4995609;28;20064;-64
2023/01/07 02:43:52;;;;;;;;;;;;;;;;;;;;;
2023/01/07 02:46:41;;;;;;;4.85;4.45;;;;;;;;;;5011417;28;20037;-64
2023/01/07 02:49:32;;;;;;;;;;;;;;;;;;;;;
2023/01/07 02:52:43;;;;;;;4.75;4.35;;;;;;;;;;5011247;28;19909;-64
2023/01/07 02:55:46;;;;;;;6.03;5.35;;;;;;;;;;5014064;28;20037;-64
2023/01/07 02:58:47;;;;;;;6.05;5.45;;;;;;;;;;4996337;28;20085;-64
2023/01/07 03:02:03;;;;;;;6.28;5.38;;;;;;;;;;5016562;28;20041;-64
2023/01/07 03:09:15;;;;;;;7.15;5.50;;;;;;;;;;5013391;28;20088;-73
2023/01/07 03:12:50;;;;;;;;;;;;;;;;;;;;;
2023/01/07 03:15:58;;;;;;;;;;;;;;;;;;;;;
2023/01/07 03:19:16;;;;;;;7.05;6.22;;;;;;;;;;5009840;28;20544;-73
2023/01/07 03:22:40;;;;;;;6.78;5.90;;;;;;;;;;5033369;28;20507;-73
2023/01/07 03:25:49;;;;;;;7.32;6.45;;;;;;;;;;5017937;28;20049;-73
2023/01/07 03:29:07;;;;;;;7.90;6.53;;;;;;;;;;4999425;28;20512;-72
2023/01/07 03:32:58;;;;;;;9.32;6.22;;;;;;;;;;5017196;28;20052;-72
2023/01/07 03:36:27;;;;;;;;;;;;;;;;;;;;;
2023/01/07 03:40:12;;;;;;;;;;;;;;;;;;;;;
2023/01/07 03:43:48;;;;;;;;;;;;;;;;;;;;;
2023/01/07 03:47:42;;;;;;;;;;;;;;;;;;;;;
2023/01/07 03:50:44;;;;;;;7.25;6.30;;;;;;;;;;4935661;29;20087;-73
2023/01/07 03:57:49;;;;;;;;;;;;;;;;;;;;;
2023/01/07 04:07:24;;;;;;;7.45;6.75;;;;;;;;;;4975138;28;20065;-72
2023/01/07 04:10:24;;;;;;;;;;;;;;;;;;;;;
2023/01/07 04:14:00;;;;;;;11.38;9.52;;;;;;;;;;4974834;28;20034;-73
2023/01/07 04:17:32;;;;;;;11.65;9.35;;;;;;;;;;4962334;28;20070;-74
2023/01/07 04:23:52;;;;;;;10.95;8.40;;;;;;;;;;4975242;28;20049;-73
2023/01/07 04:26:32;;;;;;;;;;;;;;;;;;;;;
2023/01/07 04:29:06;;;;;;;9.20;7.63;;;;;;;;;;4961636;28;20129;-73
2023/01/07 04:32:18;;;;;;;19.33;16.20;;;;;;;;;;4977427;28;20066;-73
2023/01/07 04:39:19;;;;;;;8.27;7.10;;;;;;;;;;4994823;28;20049;-74
2023/01/07 04:42:52;;;;;;;7.25;6.50;;;;;;;;;;4985311;28;20042;-74
2023/01/07 04:49:52;;;;;;;7.15;6.45;;;;;;;;;;5015426;28;20045;-73
2023/01/07 04:53:25;;;;;;;;;;;;;;;;;;;;;
2023/01/07 04:56:50;;;;;;;8.93;7.22;;;;;;;;;;5015578;28;20489;-73
2023/01/07 05:00:05;;;;;;;9.52;8.00;;;;;;;;;;5015476;28;20085;-73
2023/01/07 05:03:18;;;;;;;9.32;7.25;;;;;;;;;;4997713;28;20042;-73
2023/01/07 05:10:24;;;;;;;;;;;;;;;;;;;;;
2023/01/07 05:19:55;;;;;;;8.95;7.43;;;;;;;;;;5013111;28;20026;-76
2023/01/07 05:22:50;;;;;;;;;;;;;;;;;;;;;
2023/01/07 05:25:56;;;;;;;13.07;9.57;;;;;;;;;;5013805;28;20424;-73
2023/01/07 05:28:55;;;;;;;12.52;9.48;;;;;;;;;;5010472;28;20456;-74
2023/01/07 05:32:01;;;;;;;13.27;9.68;;;;;;;;;;5028069;28;20034;-73
2023/01/07 05:35:00;;;;;;;16.50;9.95;;;;;;;;;;4996870;28;20108;-73
2023/01/07 05:38:05;;;;;;;15.25;9.32;;;;;;;;;;5010493;28;20049;-72
2023/01/07 05:41:20;;;;;;;;;;;;;;;;;;;;;
2023/01/07 05:44:48;;;;;;;;;;;;;;;;;;;;;
2023/01/07 05:51:32;;;;;;;22.55;12.77;;;;;;;;;;4936934;28;20048;-64
2023/01/07 05:54:40;;;;;;;29.52;16.55;;;;;;;;;;5000411;28;20032;-64
2023/01/07 06:01:20;;;;;;;24.48;15.02;;;;;;;;;;5013643;28;20084;-63
2023/01/07 06:04:42;;;;;;;33.65;17.73;;;;;;;;;;4998322;28;20050;-63
2023/01/07 06:07:47;;;;;;;27.73;16.40;;;;;;;;;;5014267;28;20512;-63
2023/01/07 06:14:22;;;;;;;26.25;13.98;;;;;;;;;;4997971;28;20052;-63
2023/01/07 06:20:55;;;;;;;34.50;17.25;;;;;;;;;;5005087;28;20045;-63
2023/01/07 06:23:53;;;;;;;29.45;18.52;;;;;;;;;;5012884;28;20045;-64
2023/01/07 06:26:46;;;;;;;32.22;18.33;;;;;;;;;;4981719;28;20038;-62
2023/01/07 06:29:39;;;;;;;31.23;18.88;;;;;;;;;;4979504;28;20486;-63
2023/01/07 06:32:52;;;;;;;32.10;19.52;;;;;;;;;;5011615;28;20521;-63
2023/01/07 06:35:37;;;;;;;28.83;17.48;;;;;;;;;;4994723;28;20046;-63
2023/01/07 06:38:23;;;;;;;27.50;17.40;;;;;;;;;;4979623;28;20085;-63
2023/01/07 06:41:13;;;;;;;27.35;17.05;;;;;;;;;;4992026;28;20042;-63
2023/01/07 06:44:14;;;;;;;;;;;;;;;;;;;;;
2023/01/07 06:47:31;;;;;;;28.23;17.50;;;;;;;;;;4993175;28;20034;-63
2023/01/07 06:51:19;;;;;;;;;;;;;;;;;;;;;
2023/01/07 06:54:40;;;;;;;25.05;17.88;;;;;;;;;;4991143;28;20038;-63
2023/01/07 06:57:20;;;;;;;22.55;17.17;;;;;;;;;;4991875;28;20062;-63
2023/01/07 07:00:23;;;;;;;;;;;;;;;;;;;;;
2023/01/07 07:03:18;;;;;;;21.52;15.25;;;;;;;;;;4993066;28;20030;-63
2023/01/07 07:06:23;;;;;;;;;;;;;;;;;;4991702;28;20073;-63
2023/01/07 07:09:33;;;;;;;22.30;15.57;;;;;;;;;;4993002;28;20317;-63
2023/01/07 07:12:18;;;;;;;21.77;14.75;;;;;;;;;;4991702;28;20054;-63
2023/01/07 07:15:23;;;;;;;17.08;13.10;;;;;;;;;;4991868;28;20129;-63
2023/01/07 07:18:43;;;;;;;16.77;13.73;;;;;;;;;;4991782;28;20061;-64
2023/01/07 07:21:25;;;;;;;28.35;20.17;;;;;;;;;;4991371;28;20482;-64
2023/01/07 07:24:53;;;;;;;;;;;;;;;;;;;;;
2023/01/07 07:28:22;;;;;;;26.85;18.80;;;;;;;;;;4991859;28;20081;-64
2023/01/07 07:38:46;;;;;;;17.45;12.60;;;;;;;;;;4985023;28;20073;-64
2023/01/07 07:41:59;;;;;;;20.85;14.63;;;;;;;;;;4978713;28;20100;-63
2023/01/07 07:44:54;;;;;;;16.45;13.60;;;;;;;;;;4994494;28;20054;-63
2023/01/07 07:48:29;;;;;;;;;;;;;;;;;;;;;
2023/01/07 07:51:27;;;;;;;23.73;18.50;;;;;;;;;;5015668;28;20366;-63
2023/01/07 07:54:27;;;;;;;;;;;;;;;;;;;;;
2023/01/07 07:57:26;;;;;;;22.38;17.83;;;;;;;;;;5015670;28;20077;-64
2023/01/07 08:00:02;;;;;;;20.15;15.70;;;;;;;;;;4981648;28;20501;-64
2023/01/07 08:02:56;;;;;;;17.05;12.68;;;;;;;;;;5015390;28;20172;-63
2023/01/07 08:05:42;;;;;;;19.05;14.35;;;;;;;;;;4997187;28;20050;-64
2023/01/07 08:14:56;;;;;;;28.63;18.77;;;;;;;;;;5011582;28;20045;-63
2023/01/07 08:17:28;;;;;;;28.58;20.38;;;;;;;;;;5015453;28;20042;-64
2023/01/07 08:24:59;;;;;;;24.70;17.60;;;;;;;;;;5012084;28;20041;-64
2023/01/07 08:28:22;;;;;;;;;;;;;;;;;;;;;
2023/01/07 08:47:37;;;;;;;14.18;11.55;;;;;;;;;;4934702;29;20099;-64
2023/01/07 08:50:42;;;;;;;13.98;11.45;;;;;;;;;;4947628;28;20408;-63
2023/01/07 08:53:26;;;;;;;14.70;11.85;;;;;;;;;;4975900;28;20070;-63
2023/01/07 08:56:24;;;;;;;17.95;13.85;;;;;;;;;;4992590;28;20050;-64
2023/01/07 08:59:04;;;;;;;17.15;13.45;;;;;;;;;;4976264;28;20118;-63
2023/01/07 09:01:32;;;;;;;;;;;;;;;;;;4976674;28;20558;-64
2023/01/07 09:04:26;;;;;;;24.77;16.10;;;;;;;;;;4976790;28;20231;-63
2023/01/07 09:07:00;;;;;;;21.67;15.18;;;;;;;;;;4976474;28;20622;-63
2023/01/07 09:09:32;;;;;;;22.63;15.98;;;;;;;;;;4959716;28;20042;-63
2023/01/07 09:12:01;;;;;;;23.77;16.48;;;;;;;;;;4975212;28;20049;-63
2023/01/07 09:14:38;;;;;;;23.63;16.40;;;;;;;;;;5007331;28;20168;-63
2023/01/07 09:17:12;;;;;;;28.25;19.08;;;;;;;;;;4975141;28;20035;-63
2023/01/07 09:19:41;;;;;;;;;;;;;;;;;;4976646;28;20050;-63
2023/01/07 09:22:25;;;;;;;32.17;20.77;;;;;;;;;;4976414;28;19961;-63
2023/01/07 09:25:02;;;;;;;27.70;19.05;;;;;;;;;;4971999;28;20042;-73
2023/01/07 09:27:48;;;;;;;25.13;17.92;;;;;;;;;;4975281;28;20513;-72
2023/01/07 09:31:09;;;;;;;37.25;27.23;;;;;;;;;;4974308;28;20042;-73
2023/01/07 09:34:33;;;;;;;39.35;25.65;;;;;;;;;;4971545;28;20070;-73
2023/01/07 09:37:53;;;;;;;34.78;21.38;;;;;;;;;;4974149;28;20077;-72
2023/01/07 09:56:33;;;;;;;22.48;16.15;;;;;;;;;;5064543;23;20091;-73
2023/01/07 09:59:25;;;;;;;22.25;15.95;;;;;;;;;;5055252;28;20434;-73
2023/01/07 10:02:34;;;;;;;23.40;15.95;;;;;;;;;;5058856;28;20404;-73
2023/01/07 10:05:31;;;;;;;22.73;16.33;;;;;;;;;;5072980;28;20036;-73
2023/01/07 10:08:38;;;;;;;21.20;15.35;;;;;;;;;;5072952;28;20032;-73
2023/01/07 10:11:22;;;;;;;16.00;12.50;;;;;;;;;;5032046;28;20131;-73
2023/01/07 10:13:56;;;;;;;;;;;;;;;;;;5073888;28;20068;-73
2023/01/07 10:16:41;;;;;;;21.58;15.10;;;;;;;;;;5073543;28;19909;-73
2023/01/07 10:19:17;;;;;;;22.58;16.25;;;;;;;;;;5055776;28;20045;-73
2023/01/07 10:21:55;;;;;;;22.98;16.77;;;;;;;;;;5073555;28;20032;-73
2023/01/07 10:24:43;;;;;;;21.58;17.45;;;;;;;;;;5073665;28;20120;-73
2023/01/07 10:27:18;;;;;;;30.80;22.08;;;;;;;;;;5072490;28;20048;-73
2023/01/07 10:29:53;;;;;;;22.55;18.08;;;;;;;;;;5054691;28;20442;-73
2023/01/07 10:32:53;;;;;;;28.88;20.83;;;;;;;;;;5054671;28;20461;-73
2023/01/07 10:39:51;;;;;;;34.03;24.70;;;;;;;;;;5072043;28;20062;-73
2023/01/07 10:42:36;;;;;;;28.67;20.88;;;;;;;;;;5055036;28;20135;-73
2023/01/07 10:45:20;;;;;;;29.75;19.63;;;;;;;;;;5072253;28;20115;-73
2023/01/07 10:47:49;;;;;;;25.00;18.25;;;;;;;;;;5054492;28;20037;-73
2023/01/07 10:50:28;;;;;;;26.38;18.60;;;;;;;;;;5054702;28;20074;-72
2023/01/07 10:53:11;;;;;;;26.95;18.83;;;;;;;;;;5072266;28;20063;-73
2023/01/07 10:55:45;;;;;;;23.52;17.45;;;;;;;;;;5072144;28;20063;-73
2023/01/07 10:58:14;;;;;;;29.38;20.73;;;;;;;;;;5072383;28;20115;-73
2023/01/07 11:00:43;;;;;;;25.85;18.60;;;;;;;;;;5071848;28;20550;-72
2023/01/07 11:03:15;;;;;;;24.40;16.83;;;;;;;;;;5054183;28;20372;-72
2023/01/07 11:05:47;;;;;;;22.10;16.05;;;;;;;;;;5072148;28;20403;-72
2023/01/07 11:08:36;;;;;;;24.27;17.45;;;;;;;;;;5055725;28;20089;-72
2023/01/07 11:11:05;;;;;;;25.42;17.85;;;;;;;;;;5054200;28;20093;-72
2023/01/07 11:13:44;;;;;;;22.88;16.55;;;;;;;;;;5054070;28;20079;-72
2023/01/07 11:16:42;;;;;;;23.90;15.98;;;;;;;;;;5072054;28;20507;-72
2023/01/07 11:19:56;;;;;;;22.92;16.10;;;;;;;;;;5072149;28;20491;-72
2023/01/07 11:26:43;;;;;;;;;;;;;;;;;;;;;
2023/01/07 11:34:14;;;;;;;;;;;;;;;;;;;;;
2023/01/07 11:41:40;;;;;;;14.82;11.68;;;;;;;;;;5052493;28;20032;-73
2023/01/07 11:44:56;;;;;;;17.10;12.07;;;;;;;;;;5054155;28;20102;-72
2023/01/07 11:48:32;;;;;;;15.80;11.68;;;;;;;;;;5075457;28;20040;-72
2023/01/07 11:51:26;;;;;;;16.63;12.10;;;;;;;;;;5025681;28;20555;-72
2023/01/07 11:54:47;;;;;;;16.73;11.60;;;;;;;;;;5075073;28;20438;-72
2023/01/07 12:04:48;;;;;;;12.48;10.20;;;;;;;;;;5074690;28;20040;-73
2023/01/07 12:07:56;;;;;;;12.80;9.98;;;;;;;;;;5057201;28;20044;-72
2023/01/07 12:11:13;;;;;;;25.58;16.42;;;;;;;;;;5075218;28;20029;-72
2023/01/07 12:14:54;;;;;;;14.95;10.55;;;;;;;;;;5070262;28;20500;-72
2023/01/07 12:18:35;;;;;;;11.57;9.07;;;;;;;;;;5062039;28;20043;-72
2023/01/07 12:21:27;;;;;;;9.20;7.20;;;;;;;;;;5071091;28;20036;-72
2023/01/07 12:24:33;;;;;;;8.82;7.55;;;;;;;;;;5055657;28;20045;-73
2023/01/07 12:27:25;;;;;;;7.38;6.65;;;;;;;;;;5041432;28;20033;-72
2023/01/07 12:33:59;;;;;;;9.25;7.82;;;;;;;;;;5070510;28;20064;-72
2023/01/07 12:37:23;;;;;;;10.77;8.73;;;;;;;;;;5060753;28;20068;-72
2023/01/07 12:41:00;;;;;;;;;;;;;;;;;;;;;
2023/01/07 12:55:08;;;;;;;6.50;5.80;;;;;;;;;;5053378;28;20119;-72
2023/01/07 13:02:32;;;;;;;8.00;5.90;;;;;;;;;;5014012;28;20030;-72
2023/01/07 13:05:36;;;;;;;39.97;19.70;;;;;;;;;;5055071;28;20126;-73
2023/01/07 13:09:13;;;;;;;68.40;35.75;;;;;;;;;;5052646;28;20036;-73
2023/01/07 13:23:26;;;;;;;7.90;5.38;;;;;;;;;;5054953;28;20438;-75
2023/01/07 13:26:36;;;;;;;8.98;7.45;;;;;;;;;;5054684;28;20037;-74
2023/01/07 13:30:02;;;;;;;;;;;;;;;;;;;;;
2023/01/07 13:33:36;;;;;;;13.18;9.93;;;;;;;;;;5051789;28;20040;-74
2023/01/07 13:37:10;;;;;;;15.45;11.10;;;;;;;;;;5011310;28;20045;-73
2023/01/07 13:44:21;;;;;;;;;;;;;;;;;;;;;
2023/01/07 13:47:20;;;;;;;24.70;16.35;;;;;;;;;;5054371;28;20400;-73
2023/01/07 13:54:31;;;;;;;21.42;14.48;;;;;;;;;;5054528;28;20068;-73
2023/01/07 13:57:57;;;;;;;28.30;20.45;;;;;;;;;;5052880;28;20049;-73
2023/01/07 14:01:21;;;;;;;;;;;;;;;;;;;;;
2023/01/07 14:04:44;;;;;;;34.50;23.83;;;;;;;;;;5051318;28;20044;-73
2023/01/07 14:08:02;;;;;;;30.05;19.15;;;;;;;;;;5050865;28;20439;-73
2023/01/07 14:11:21;;;;;;;18.35;12.85;;;;;;;;;;5039261;28;20595;-73
2023/01/07 14:14:31;;;;;;;20.70;13.90;;;;;;;;;;5051349;28;20196;-73
2023/01/07 14:18:02;;;;;;;34.47;22.75;;;;;;;;;;5051111;28;20059;-73
2023/01/07 14:24:44;;;;;;;46.75;29.58;;;;;;;;;;5053793;28;20040;-73
2023/01/07 14:27:34;;;;;;;33.75;21.98;;;;;;;;;;5035343;28;20036;-74
2023/01/07 14:30:48;;;;;;;;;;;;;;;;;;;;;
2023/01/07 14:33:52;;;;;;;31.35;20.30;;;;;;;;;;5010254;28;20045;-73
2023/01/07 14:37:13;;;;;;;31.98;20.90;;;;;;;;;;5053229;28;20473;-73
2023/01/07 14:40:35;;;;;;;;;;;;;;;;;;;;;
2023/01/07 14:43:55;;;;;;;29.33;18.58;;;;;;;;;;5049995;28;20045;-73
2023/01/07 14:47:10;;;;;;;34.30;20.20;;;;;;;;;;5039212;28;20040;-73
2023/01/07 14:50:20;;;;;;;;;;;;;;;;;;;;;
2023/01/07 14:53:35;;;;;;;20.40;14.30;;;;;;;;;;5053707;28;20056;-73
2023/01/07 14:56:57;;;;;;;22.00;16.20;;;;;;;;;;5045740;28;20451;-73
2023/01/07 15:00:21;;;;;;;22.65;14.65;;;;;;;;;;5037992;28;20029;-73
2023/01/07 15:03:43;;;;;;;20.88;14.15;;;;;;;;;;5053864;28;20039;-73
2023/01/07 15:16:54;;;;;;;;;;;;;;;;;;;;;
2023/01/07 15:23:13;;;;;;;51.42;38.22;;;;;;;;;;5053750;28;20036;-73
2023/01/07 15:26:37;;;;;;;63.60;43.38;;;;;;;;;;5036113;28;20048;-73
2023/01/07 15:30:08;;;;;;;69.45;43.90;;;;;;;;;;5040444;28;20087;-73
2023/01/07 15:33:52;;;;;;;;;;;;;;;;;;;;;
2023/01/07 15:36:53;;;;;;;102.68;62.47;;;;;;;;;;5031184;28;20044;-73
2023/01/07 15:43:20;;;;;;;104.03;55.58;;;;;;;;;;5050408;28;20495;-73
2023/01/07 15:46:37;;;;;;;120.78;67.47;;;;;;;;;;5053265;28;20040;-73
2023/01/07 15:52:36;;;;;;;128.48;76.47;;;;;;;;;;5053220;28;20040;-73
2023/01/07 15:55:50;;;;;;;102.25;60.92;;;;;;;;;;5020174;28;20041;-73
2023/01/07 15:59:26;;;;;;;116.25;61.70;;;;;;;;;;5051347;28;20388;-73
2023/01/07 16:02:54;;;;;;;;;;;;;;;;;;;;;
2023/01/07 16:13:35;;;;;;;45.75;26.38;;;;;;;;;;5075075;28;20047;-75
2023/01/07 19:16:44;;;;;;;;;;;;;;;;;;5030928;28;20049;-68
2023/01/07 19:19:34;;;;;;;107.93;64.10;;;;;;;;;;5032262;28;20261;-69
2023/01/07 19:22:19;;;;;;;104.65;62.67;;;;;;;;;;5014397;28;20061;-69
2023/01/07 19:24:58;;;;;;;99.50;59.63;;;;;;;;;;5031069;28;20065;-68
2023/01/07 19:27:35;;;;;;;81.68;49.65;;;;;;;;;;5032155;28;20038;-69
2023/01/07 19:30:07;;;;;;;84.00;50.70;;;;;;;;;;5032202;28;20069;-69
2023/01/07 19:32:38;;;;;;;84.43;54.92;;;;;;;;;;5032177;28;20041;-69
2023/01/07 19:35:17;;;;;;;88.88;55.15;;;;;;;;;;5032074;28;20042;-69
2023/01/07 19:38:41;;;;;;;;;;;;;;;;;;;;;
2023/01/07 19:41:41;;;;;;;63.17;42.22;;;;;;;;;;5015859;28;20044;-68
2023/01/07 19:44:23;;;;;;;81.57;53.17;;;;;;;;;;5035594;28;20039;-68
2023/01/07 19:46:55;;;;;;;59.85;40.17;;;;;;;;;;5017959;28;20038;-68
2023/01/07 19:49:28;;;;;;;62.90;39.35;;;;;;;;;;5018872;28;20046;-68
2023/01/07 19:52:10;;;;;;;65.03;42.42;;;;;;;;;;5035735;28;20049;-68
2023/01/07 19:54:56;;;;;;;68.55;43.28;;;;;;;;;;5034346;28;20056;-68
2023/01/07 19:57:47;;;;;;;460.77;321.23;;;;;;;;;;5035648;28;20112;-68
2023/01/07 20:00:18;;;;;;;450.25;309.85;;;;;;;;;;5017791;28;20041;-68
2023/01/07 20:02:46;;;;;;;464.30;311.23;;;;;;;;;;5017792;28;20091;-68
2023/01/07 20:05:24;;;;;;;120.07;83.53;;;;;;;;;;5035346;28;20038;-68
2023/01/07 20:07:52;;;;;;;52.63;37.25;;;;;;;;;;5035446;28;20485;-68
2023/01/07 20:10:35;;;;;;;59.13;38.45;;;;;;;;;;5035350;28;20040;-68
2023/01/07 20:19:44;;;;;;;66.70;43.47;;;;;;;;;;5033798;28;20034;-69
2023/01/07 20:22:33;;;;;;;64.75;43.88;;;;;;;;;;5017352;28;20124;-69
2023/01/07 20:25:29;;;;;;;216.43;131.77;;;;;;;;;;5017350;28;20044;-68
2023/01/07 20:28:24;;;;;;;120.20;78.50;;;;;;;;;;5027805;28;20516;-68
2023/01/07 22:11:54;;;;;;;100.32;59.72;;;;;;;;;;5074932;22;20499;-68
2023/01/07 22:17:33;;;;;;;85.70;50.97;;;;;;;;;;5066565;28;20041;-68
2023/01/07 22:20:03;;;;;;;;;;;;;;;;;;5055371;28;20523;-68
2023/01/07 22:22:36;;;;;;;83.55;48.72;;;;;;;;;;5072898;28;20342;-68
2023/01/07 22:25:11;;;;;;;52.17;34.80;;;;;;;;;;5072846;28;20040;-68
2023/01/07 22:27:55;;;;;;;81.18;47.85;;;;;;;;;;5072663;28;20083;-68
2023/01/07 22:30:38;;;;;;;54.58;34.50;;;;;;;;;;5056116;28;20094;-68
2023/01/07 22:33:18;;;;;;;74.45;41.75;;;;;;;;;;5054693;28;20040;-68
2023/01/07 22:35:50;;;;;;;76.40;40.90;;;;;;;;;;5057011;28;20036;-68
2023/01/07 22:38:18;;;;;;;76.47;41.40;;;;;;;;;;5073848;28;20040;-68
2023/01/07 22:40:47;;;;;;;75.65;42.38;;;;;;;;;;5073949;28;20387;-69
2023/01/07 22:43:17;;;;;;;92.15;47.08;;;;;;;;;;5073963;28;20031;-69
2023/01/07 22:45:54;;;;;;;91.82;46.60;;;;;;;;;;5073328;28;20067;-69
2023/01/07 22:48:23;;;;;;;63.60;36.28;;;;;;;;;;5056209;28;20487;-69
2023/01/07 22:50:56;;;;;;;78.25;40.10;;;;;;;;;;5073732;28;20542;-69
2023/01/07 22:53:27;;;;;;;96.82;44.80;;;;;;;;;;5073772;28;20504;-69
2023/01/07 22:55:56;;;;;;;87.15;42.10;;;;;;;;;;5074098;28;20032;-69
2023/01/07 22:58:25;;;;;;;236.95;103.05;;;;;;;;;;5073760;28;20479;-70
2023/01/07 23:00:54;;;;;;;219.43;101.47;;;;;;;;;;5073745;28;20040;-69
2023/01/07 23:03:25;;;;;;;150.25;73.82;;;;;;;;;;5073747;28;20037;-69
2023/01/07 23:05:56;;;;;;;61.10;35.70;;;;;;;;;;5055478;28;20047;-70
2023/01/07 23:08:23;;;;;;;162.13;78.53;;;;;;;;;;5073683;28;20035;-69
2023/01/07 23:10:56;;;;;;;339.98;160.98;;;;;;;;;;5055384;28;20072;-69
2023/01/07 23:13:25;;;;;;;50.25;32.47;;;;;;;;;;5035525;28;20494;-69
2023/01/07 23:15:54;;;;;;;47.15;30.10;;;;;;;;;;5052125;28;20048;-69
2023/01/07 23:18:22;;;;;;;83.25;49.30;;;;;;;;;;5055665;28;20464;-70
2023/01/07 23:20:54;;;;;;;75.30;44.33;;;;;;;;;;5057929;28;20037;-70
2023/01/07 23:23:22;;;;;;;256.80;141.43;;;;;;;;;;5057867;28;20423;-70
2023/01/07 23:25:53;;;;;;;238.93;134.07;;;;;;;;;;5039587;28;20025;-70
2023/01/07 23:28:19;;;;;;;;;;;;;;;;;;5056188;28;20377;-70
2023/01/07 23:30:49;;;;;;;65.20;42.45;;;;;;;;;;5057226;28;20008;-69
2023/01/07 23:33:19;;;;;;;46.78;29.88;;;;;;;;;;5039383;28;20044;-69
2023/01/07 23:35:47;;;;;;;59.63;44.10;;;;;;;;;;5056674;28;20441;-70
2023/01/07 23:38:16;;;;;;;56.38;39.28;;;;;;;;;;5039238;28;20391;-68
2023/01/07 23:40:42;;;;;;;40.22;28.45;;;;;;;;;;5057032;28;20083;-69
2023/01/07 23:43:07;;;;;;;47.00;31.08;;;;;;;;;;5057218;28;20029;-68
2023/01/07 23:45:34;;;;;;;69.47;46.05;;;;;;;;;;5056845;28;20099;-69
2023/01/07 23:48:08;;;;;;;75.63;51.83;;;;;;;;;;5056774;28;20055;-69
2023/01/07 23:50:34;;;;;;;;;;;;;;;;;;5057850;28;20380;-69
2023/01/07 23:53:02;;;;;;;55.03;35.03;;;;;;;;;;5057053;28;19909;-70
2023/01/07 23:55:30;;;;;;;64.35;44.95;;;;;;;;;;5056971;28;20124;-70
2023/01/07 23:57:59;;;;;;;50.25;39.17;;;;;;;;;;5056095;28;20037;-70
